Terminal Aerodrome Forecast
Issued by NWS

Home | Current Version | Previous Version | Text Only | Print | Product List | Glossary On
Versions: 1 2 3 4 5 6 7 8 9 10 11 12 13 14 15 16 17 18 19 20 21 22 23 24 25 26 27 28 29 30 31 32 33 34 35 36 37 38 39
000
FTUS43 KPAH 200500
TAFOWB
TAF
KOWB 200527Z 2006/2106 22005KT P6SM FEW150
     FM200900 22003KT 3SM BR SKC
      TEMPO 2010/2012 1 1/2SM BR
     FM201400 26007KT P6SM FEW060 BKN250=

USA.gov is the U.S. government's official web portal to all federal, state and local government web resources and services.